Time;durP1;ratioP1;P1;durP2;ratioP2;P2;SDS_P1;SDS_P2;PMS_P1;PMS_P2;Temp;Humidity;BMP_temperature;BMP_pressure;BME280_temperature;BME280_humidity;BME280_pressure;Samples;Min_cycle;Max_cycle;Signal;HPM_P1;HPM_P2
2022/01/15 00:00:30;;;;;;;0.88;0.40;;;;;;;0.14;60.01;96629.41;4992858;28;20042;-75
2022/01/15 00:02:56;;;;;;;2.35;0.60;;;;;;;0.13;60.32;96649.03;4980156;28;20509;-77
2022/01/15 00:05:22;;;;;;;0.30;0.30;;;;;;;0.13;60.80;96631.16;4976946;28;20053;-76
2022/01/15 00:07:48;;;;;;;1.23;0.40;;;;;;;0.06;60.07;96632.13;4980123;28;20184;-77
2022/01/15 00:10:16;;;;;;;0.90;0.50;;;;;;;-0.02;60.15;96627.13;4979451;28;20075;-78
2022/01/15 00:12:42;;;;;;;1.80;0.43;;;;;;;0.03;59.86;96652.63;4982155;28;20046;-77
2022/01/15 00:15:14;;;;;;;0.85;0.55;;;;;;;0.10;60.80;96655.94;4974743;28;20053;-77
2022/01/15 00:17:50;;;;;;;1.10;0.43;;;;;;;0.00;60.22;96652.69;4988888;28;20049;-76
2022/01/15 00:20:19;;;;;;;2.40;0.55;;;;;;;0.03;60.35;96637.28;4980269;28;20190;-77
2022/01/15 00:22:47;;;;;;;0.70;0.52;;;;;;;0.14;60.57;96642.19;4990732;28;20112;-77
2022/01/15 00:25:13;;;;;;;1.25;0.40;;;;;;;0.18;59.80;96645.56;4960553;28;20039;-79
2022/01/15 00:27:40;;;;;;;1.10;0.70;;;;;;;0.32;59.90;96668.34;4974414;28;20045;-77
2022/01/15 00:30:07;;;;;;;2.05;0.50;;;;;;;0.26;60.81;96674.38;4977501;28;20039;-78
2022/01/15 00:32:32;;;;;;;1.52;0.50;;;;;;;0.17;60.50;96669.44;4972091;28;20039;-76
2022/01/15 00:35:09;;;;;;;0.70;0.50;;;;;;;0.23;60.86;96677.00;4976183;28;20058;-76
2022/01/15 00:37:35;;;;;;;1.23;0.60;;;;;;;0.20;60.58;96669.41;4961543;28;20521;-76
2022/01/15 00:40:05;;;;;;;0.68;0.60;;;;;;;0.20;60.83;96665.13;4957999;28;20141;-76
2022/01/15 00:42:32;;;;;;;1.95;0.60;;;;;;;0.18;61.31;96669.41;4973704;28;20659;-77
2022/01/15 00:45:00;;;;;;;0.80;0.60;;;;;;;0.27;60.96;96683.75;4979225;28;20947;-77
2022/01/15 00:47:30;;;;;;;2.80;0.88;;;;;;;0.04;61.64;96650.91;4974451;28;20093;-76
2022/01/15 00:50:01;;;;;;;1.33;0.65;;;;;;;0.26;61.60;96676.94;4975361;28;20805;-76
2022/01/15 00:52:27;;;;;;;1.45;0.60;;;;;;;0.27;61.55;96681.19;4977010;28;20068;-78
2022/01/15 00:54:53;;;;;;;2.00;0.60;;;;;;;0.35;61.29;96701.53;4944565;28;20046;-78
2022/01/15 00:57:20;;;;;;;1.45;0.70;;;;;;;0.07;61.70;96668.78;4972932;28;20125;-78
2022/01/15 00:59:45;;;;;;;3.40;0.88;;;;;;;0.17;61.94;96684.78;4969487;28;20034;-76
2022/01/15 01:02:11;;;;;;;0.60;0.60;;;;;;;0.25;61.98;96699.13;4960789;28;20049;-75
2022/01/15 01:04:37;;;;;;;2.15;0.90;;;;;;;0.27;61.96;96692.28;4974648;28;20756;-79
2022/01/15 01:07:03;;;;;;;1.27;0.60;;;;;;;0.17;61.92;96693.31;4972741;28;20053;-77
2022/01/15 01:09:45;;;;;;;1.25;0.77;;;;;;;0.29;61.93;96705.91;4976795;28;20790;-76
2022/01/15 01:12:28;;;;;;;0.77;0.60;;;;;;;0.38;61.54;96697.22;4977355;28;20042;-75
2022/01/15 01:21:02;;;;;;;3.20;1.23;;;;;;;0.44;61.42;96693.69;4960607;28;20050;-75
2022/01/15 01:23:10;;;;;;;1.98;0.60;;;;;;;0.46;61.37;96709.88;4976424;28;20058;-76
2022/01/15 01:25:41;;;;;;;1.30;0.52;;;;;;;0.45;61.12;96710.72;4944306;28;20046;-76
2022/01/15 01:28:15;;;;;;;1.48;0.47;;;;;;;0.44;61.07;96703.94;4973762;28;20053;-76
2022/01/15 01:30:50;;;;;;;1.15;0.40;;;;;;;0.33;61.00;96698.19;4979965;28;20050;-75
2022/01/15 01:36:02;;;;;;;1.13;0.50;;;;;;;0.39;61.33;96706.56;4979317;28;20038;-76
2022/01/15 01:38:33;;;;;;;0.85;0.40;;;;;;;0.49;61.05;96717.50;4974672;28;20101;-79
2022/01/15 01:41:01;;;;;;;1.23;0.90;;;;;;;0.40;60.74;96707.41;4976692;28;20081;-77
2022/01/15 01:46:18;;;;;;;1.38;0.60;;;;;;;0.15;61.25;96659.22;4979808;28;20414;-76
2022/01/15 01:48:45;;;;;;;3.15;0.70;;;;;;;0.49;61.09;96703.84;4993500;28;20053;-76
2022/01/15 01:51:24;;;;;;;1.23;0.50;;;;;;;0.53;60.85;96731.06;4990065;28;20046;-78
2022/01/15 01:53:51;;;;;;;1.45;0.50;;;;;;;0.50;60.58;96723.44;4988621;28;21545;-77
2022/01/15 01:56:18;;;;;;;1.67;0.70;;;;;;;0.50;60.28;96734.53;4996930;28;20418;-77
2022/01/15 01:58:44;;;;;;;2.13;0.60;;;;;;;0.47;60.35;96723.47;4993614;28;20074;-76
2022/01/15 02:01:10;;;;;;;0.80;0.50;;;;;;;0.38;61.04;96722.78;4964238;28;20427;-75
2022/01/15 02:03:36;;;;;;;1.65;0.60;;;;;;;0.47;60.07;96738.84;4977297;28;20048;-76
2022/01/15 02:06:02;;;;;;;1.45;0.57;;;;;;;0.35;60.15;96750.97;4965475;28;20062;-77
2022/01/15 02:08:29;;;;;;;0.93;0.60;;;;;;;0.23;59.89;96749.47;4977746;28;20117;-76
2022/01/15 02:10:57;;;;;;;1.10;0.57;;;;;;;0.11;60.04;96747.13;4977944;28;20038;-76
2022/01/15 02:13:23;;;;;;;1.98;0.70;;;;;;;0.11;60.85;96747.13;4977164;28;20042;-76
2022/01/15 02:15:49;;;;;;;1.27;0.70;;;;;;;0.21;61.63;96751.22;4982360;28;20058;-75
2022/01/15 02:18:15;;;;;;;1.30;0.50;;;;;;;0.21;61.54;96748.66;4983998;28;20895;-75
2022/01/15 02:25:59;;;;;;;0.73;0.50;;;;;;;0.23;61.32;96757.16;4984210;28;20053;-76
2022/01/15 02:28:27;;;;;;;2.55;0.50;;;;;;;0.21;62.00;96748.66;4987207;28;20030;-74
2022/01/15 02:31:00;;;;;;;1.40;0.63;;;;;;;0.35;61.50;96756.09;4971790;28;20112;-76
2022/01/15 02:33:26;;;;;;;1.15;0.73;;;;;;;0.35;61.08;96747.56;4986106;28;20498;-76
2022/01/15 02:35:53;;;;;;;1.02;0.43;;;;;;;0.29;60.47;96735.72;4986259;28;20042;-75
2022/01/15 02:38:19;;;;;;;1.15;0.55;;;;;;;0.36;61.33;96745.00;4987306;28;20042;-76
2022/01/15 02:40:45;;;;;;;2.42;0.68;;;;;;;0.36;60.23;96749.25;4971581;28;20045;-78
2022/01/15 02:43:18;;;;;;;0.73;0.30;;;;;;;0.45;60.74;96756.78;4998142;28;20038;-76
2022/01/15 02:45:53;;;;;;;1.73;0.45;;;;;;;0.47;61.14;96765.28;4979886;28;20042;-75
2022/01/15 02:48:20;;;;;;;0.60;0.40;;;;;;;0.31;61.16;96728.88;4980457;28;20042;-76
2022/01/15 02:50:46;;;;;;;2.10;0.55;;;;;;;0.60;60.91;96773.59;4984391;28;20037;-76
2022/01/15 02:53:16;;;;;;;1.40;0.50;;;;;;;0.57;60.66;96761.69;4974192;28;20098;-78
2022/01/15 02:55:51;;;;;;;0.73;0.40;;;;;;;0.71;60.29;96784.47;4996901;28;20066;-76
2022/01/15 02:58:19;;;;;;;2.58;0.73;;;;;;;0.62;60.41;96768.44;4998379;28;20049;-76
2022/01/15 03:00:45;;;;;;;0.70;0.50;;;;;;;0.69;60.75;96783.66;4999465;28;20281;-74
2022/01/15 03:03:12;;;;;;;1.00;0.60;;;;;;;0.60;60.36;96771.88;4999726;28;20066;-74
2022/01/15 03:05:37;;;;;;;1.75;0.85;;;;;;;0.82;60.68;96802.22;4988847;28;20089;-75
2022/01/15 03:08:04;;;;;;;2.70;0.88;;;;;;;0.76;61.11;96776.75;4979589;28;20046;-76
2022/01/15 03:10:29;;;;;;;4.43;0.95;;;;;;;0.68;60.20;96773.47;4975085;28;20057;-74
2022/01/15 03:12:57;;;;;;;1.92;0.80;;;;;;;0.60;60.55;96781.28;4977876;28;20065;-76
2022/01/15 03:15:23;;;;;;;2.78;1.05;;;;;;;0.54;60.85;96782.22;4972678;28;20038;-75
2022/01/15 03:17:50;;;;;;;3.85;0.90;;;;;;;0.57;60.83;96796.69;4991473;28;20046;-77
2022/01/15 03:20:19;;;;;;;1.77;0.85;;;;;;;0.53;61.09;96800.16;4991049;28;20046;-75
2022/01/15 03:22:45;;;;;;;2.35;0.90;;;;;;;0.49;61.12;96784.03;4977714;28;20074;-76
2022/01/15 03:25:12;;;;;;;1.20;0.90;;;;;;;0.47;61.48;96779.78;4964323;28;20046;-78
2022/01/15 03:27:38;;;;;;;1.88;0.70;;;;;;;0.48;61.13;96799.38;4980384;28;20104;-77
2022/01/15 03:30:06;;;;;;;1.30;0.93;;;;;;;0.35;61.72;96780.81;4980590;28;20615;-77
2022/01/15 03:32:32;;;;;;;2.17;0.90;;;;;;;0.32;61.57;96778.34;4975126;28;20270;-76
2022/01/15 03:34:58;;;;;;;1.20;0.80;;;;;;;0.33;61.68;96785.16;4973248;28;20936;-76
2022/01/15 03:37:24;;;;;;;2.45;1.00;;;;;;;0.45;61.76;96805.41;4974200;28;20732;-79
2022/01/15 03:39:49;;;;;;;1.35;0.80;;;;;;;0.47;62.41;96805.38;4974842;28;20152;-74
2022/01/15 03:42:16;;;;;;;1.45;1.10;;;;;;;0.48;61.55;96810.47;4983194;28;20490;-72
2022/01/15 03:44:44;;;;;;;2.08;1.08;;;;;;;0.44;62.54;96801.16;4984319;28;20094;-76
2022/01/15 03:47:11;;;;;;;1.40;0.90;;;;;;;0.51;62.52;96817.25;4971844;28;20185;-77
2022/01/15 03:49:37;;;;;;;1.25;0.93;;;;;;;0.54;62.57;96815.50;4953727;28;20042;-76
2022/01/15 03:52:05;;;;;;;4.28;0.98;;;;;;;0.49;61.69;96819.84;4974480;28;20058;-76
2022/01/15 03:54:31;;;;;;;1.45;0.75;;;;;;;0.43;62.16;96820.78;4996125;28;20046;-77
2022/01/15 03:56:57;;;;;;;1.33;0.75;;;;;;;0.22;62.30;96793.00;4981010;28;20042;-75
2022/01/15 03:59:23;;;;;;;2.17;0.70;;;;;;;0.26;61.89;96809.97;4985719;28;20042;-76
2022/01/15 04:01:49;;;;;;;1.38;0.65;;;;;;;0.14;62.10;96804.19;4965764;28;20112;-75
2022/01/15 04:04:16;;;;;;;1.55;0.70;;;;;;;0.28;62.59;96833.81;4970107;28;20112;-75
2022/01/15 04:06:42;;;;;;;1.63;0.90;;;;;;;0.22;62.92;96821.13;4984307;28;20038;-76
2022/01/15 04:09:09;;;;;;;2.10;0.73;;;;;;;0.34;62.70;96832.84;4962207;28;20054;-77
2022/01/15 04:11:35;;;;;;;2.33;0.80;;;;;;;0.36;63.04;96815.78;4973006;28;20057;-76
2022/01/15 04:14:02;;;;;;;1.85;1.10;;;;;;;0.41;63.63;96842.13;4976831;28;20046;-77
2022/01/15 04:16:31;;;;;;;2.20;0.80;;;;;;;0.32;63.11;96814.16;4977311;28;20103;-76
2022/01/15 04:18:57;;;;;;;2.15;0.80;;;;;;;0.34;63.55;96831.16;4974564;28;20038;-74
2022/01/15 04:21:24;;;;;;;1.25;0.90;;;;;;;0.38;63.12;96844.75;4974785;28;20050;-77
2022/01/15 04:23:50;;;;;;;1.25;0.70;;;;;;;0.43;63.26;96848.06;4974095;28;20105;-78
2022/01/15 04:26:18;;;;;;;2.78;0.88;;;;;;;0.38;63.10;96848.16;4990390;28;20050;-75
2022/01/15 04:28:44;;;;;;;1.83;0.70;;;;;;;0.48;63.73;96855.66;4970967;28;20069;-76
2022/01/15 04:31:10;;;;;;;2.00;0.90;;;;;;;0.37;63.42;96837.94;4961408;28;20161;-76
2022/01/15 04:33:38;;;;;;;1.80;1.00;;;;;;;0.40;63.36;96846.41;4971632;28;20042;-75
2022/01/15 04:36:06;;;;;;;1.42;0.73;;;;;;;0.38;63.05;96854.97;4951360;28;20144;-76
2022/01/15 04:38:35;;;;;;;1.63;0.80;;;;;;;0.38;63.73;96862.66;4962985;28;20049;-76
2022/01/15 04:41:03;;;;;;;1.48;0.82;;;;;;;0.42;63.53;96869.41;4990821;28;20046;-78
2022/01/15 04:43:31;;;;;;;2.55;0.80;;;;;;;0.26;63.29;96838.94;4973771;28;20518;-75
2022/01/15 04:45:57;;;;;;;2.85;0.90;;;;;;;0.19;63.80;96837.34;4972720;28;20073;-78
2022/01/15 04:48:24;;;;;;;2.28;0.80;;;;;;;0.23;63.42;96869.69;4974973;28;20069;-77
2022/01/15 04:50:50;;;;;;;1.05;0.70;;;;;;;0.20;63.95;96872.28;4977459;28;20639;-80
2022/01/15 04:53:16;;;;;;;1.50;0.80;;;;;;;0.07;63.96;96858.00;4974699;28;20045;-77
2022/01/15 04:55:42;;;;;;;1.60;1.15;;;;;;;0.03;63.72;96851.22;4961545;28;20038;-75
2022/01/15 04:58:09;;;;;;;1.88;1.10;;;;;;;0.05;63.76;96864.84;4961237;28;20034;-76
2022/01/15 05:00:35;;;;;;;0.73;0.70;;;;;;;-0.11;63.95;96853.97;4979070;28;20245;-77
2022/01/15 05:03:02;;;;;;;1.67;0.90;;;;;;;-0.01;64.01;96873.44;4951250;28;20050;-75
2022/01/15 05:05:29;;;;;;;1.50;0.90;;;;;;;-0.07;64.57;96871.78;4983613;28;20141;-77
2022/01/15 05:07:55;;;;;;;1.50;0.90;;;;;;;-0.03;64.49;96886.22;4981837;28;20126;-76
2022/01/15 05:10:25;;;;;;;1.23;0.70;;;;;;;0.17;64.35;96912.41;4961864;28;20494;-76
2022/01/15 05:12:54;;;;;;;1.38;0.80;;;;;;;0.19;63.99;96910.69;4970764;28;20627;-77
2022/01/15 05:15:20;;;;;;;0.85;0.70;;;;;;;0.10;64.23;96901.44;4977137;28;20137;-78
2022/01/15 05:17:47;;;;;;;2.05;0.82;;;;;;;0.06;64.30;96915.13;4972800;28;20131;-76
2022/01/15 05:20:17;;;;;;;1.40;0.80;;;;;;;0.07;64.49;96919.38;4971737;28;20081;-76
2022/01/15 05:22:43;;;;;;;2.03;1.00;;;;;;;0.10;64.60;96919.34;4975128;28;20077;-78
2022/01/15 05:25:13;;;;;;;1.50;0.60;;;;;;;0.14;64.84;96937.16;4960343;28;20042;-78
2022/01/15 05:27:40;;;;;;;0.70;0.70;;;;;;;0.25;64.68;96947.25;4974438;28;20041;-76
2022/01/15 05:30:07;;;;;;;1.30;0.88;;;;;;;0.02;64.15;96905.78;4960985;28;20042;-76
2022/01/15 05:32:34;;;;;;;2.58;0.80;;;;;;;0.35;64.78;96950.53;4973587;28;20498;-76
2022/01/15 05:35:00;;;;;;;0.70;0.50;;;;;;;0.36;64.35;96959.91;4932383;28;20839;-79
2022/01/15 05:37:27;;;;;;;1.92;0.80;;;;;;;0.39;64.12;96962.41;4956230;28;20466;-75
2022/01/15 05:39:53;;;;;;;0.90;0.60;;;;;;;0.31;64.43;96950.59;4973938;28;20384;-79
2022/01/15 05:42:19;;;;;;;1.98;0.60;;;;;;;0.14;64.00;96928.63;4977509;28;20185;-78
2022/01/15 05:44:45;;;;;;;2.17;0.60;;;;;;;0.20;63.98;96941.34;4964849;28;20368;-77
2022/01/15 05:47:11;;;;;;;0.85;0.70;;;;;;;0.14;63.60;96949.94;4981997;28;20038;-74
2022/01/15 05:49:37;;;;;;;2.45;0.70;;;;;;;0.40;63.97;96983.72;4982723;28;20044;-78
2022/01/15 05:52:05;;;;;;;1.33;0.80;;;;;;;0.46;64.04;96991.31;4978141;28;20038;-77
2022/01/15 05:54:31;;;;;;;0.93;0.82;;;;;;;0.48;63.69;97007.50;4974446;28;20133;-77
2022/01/15 05:56:57;;;;;;;2.25;0.80;;;;;;;0.48;63.58;97001.53;4973474;28;20140;-76
2022/01/15 05:59:23;;;;;;;3.00;0.93;;;;;;;0.38;63.85;96982.88;4977236;28;20070;-77
2022/01/15 06:01:48;;;;;;;1.60;0.75;;;;;;;0.31;63.21;96981.31;4971394;28;20137;-78
2022/01/15 06:04:14;;;;;;;2.45;0.68;;;;;;;0.33;63.01;96997.47;4975821;28;20038;-76
2022/01/15 06:06:40;;;;;;;2.25;0.80;;;;;;;0.37;63.49;97010.19;4966668;28;20530;-78
2022/01/15 06:09:06;;;;;;;1.02;0.68;;;;;;;0.47;63.49;97015.19;4981726;28;20046;-76
2022/01/15 06:11:34;;;;;;;2.83;0.80;;;;;;;0.20;63.02;96971.22;4982428;28;20038;-76
2022/01/15 06:14:00;;;;;;;0.90;0.65;;;;;;;0.44;63.52;97028.88;4989672;28;20143;-76
2022/01/15 06:16:26;;;;;;;1.30;0.70;;;;;;;0.54;63.10;97027.91;4969843;28;20438;-76
2022/01/15 06:18:52;;;;;;;1.90;0.80;;;;;;;0.58;63.37;97026.97;4972967;28;20050;-76
2022/01/15 06:21:19;;;;;;;1.77;0.80;;;;;;;0.67;63.08;97032.84;4986539;28;20084;-77
2022/01/15 06:23:52;;;;;;;1.70;0.77;;;;;;;0.50;63.17;97016.00;4986036;28;20043;-79
2022/01/15 06:26:19;;;;;;;1.48;0.90;;;;;;;0.62;63.12;97038.03;4963589;28;20046;-76
2022/01/15 06:28:45;;;;;;;2.40;1.27;;;;;;;0.69;63.29;97044.75;4973575;28;20038;-77
2022/01/15 06:31:11;;;;;;;2.35;0.85;;;;;;;0.72;63.15;97043.88;4970474;28;20049;-76
2022/01/15 06:33:36;;;;;;;1.48;0.85;;;;;;;0.73;62.71;97053.25;4979343;28;20046;-78
2022/01/15 06:36:02;;;;;;;1.15;0.73;;;;;;;0.72;62.41;97052.38;4974056;28;20529;-76
2022/01/15 06:38:28;;;;;;;1.13;0.70;;;;;;;0.78;63.00;97055.75;4980463;28;20414;-76
2022/01/15 06:40:56;;;;;;;1.35;0.65;;;;;;;0.74;62.45;97042.16;4979022;28;20529;-75
2022/01/15 06:43:22;;;;;;;1.25;0.80;;;;;;;0.97;63.05;97071.72;4976770;28;20501;-76
2022/01/15 06:45:47;;;;;;;1.08;0.85;;;;;;;1.06;62.92;97081.81;4978188;28;20044;-78
2022/01/15 06:51:16;;;;;;;3.40;1.00;;;;;;;1.02;62.09;97082.72;4883981;29;19927;-76
2022/01/15 06:53:41;;;;;;;0.82;0.60;;;;;;;0.85;62.70;97053.06;4881667;29;20547;-77
2022/01/15 06:56:10;;;;;;;0.85;0.70;;;;;;;0.86;61.61;97070.13;4858716;29;20033;-76
2022/01/15 06:58:50;;;;;;;1.08;0.70;;;;;;;0.87;62.18;97086.34;4872926;29;20088;-78
2022/01/15 07:01:16;;;;;;;1.25;0.95;;;;;;;0.27;62.07;96988.16;4839357;29;20055;-76
2022/01/15 07:03:42;;;;;;;1.45;0.80;;;;;;;0.42;62.15;96993.09;4870418;29;20048;-77
2022/01/15 07:06:08;;;;;;;2.75;0.80;;;;;;;0.74;62.27;97063.47;4886214;29;20095;-76
2022/01/15 07:08:34;;;;;;;1.27;0.70;;;;;;;1.01;62.57;97084.44;4876209;29;20048;-78
2022/01/15 07:10:59;;;;;;;2.15;1.25;;;;;;;1.15;62.16;97112.44;4886407;29;20032;-75
2022/01/15 07:13:26;;;;;;;1.25;0.80;;;;;;;1.03;62.35;97099.78;4873337;29;21445;-78
2022/01/15 07:15:52;;;;;;;1.05;0.73;;;;;;;0.91;61.95;97098.22;4897528;29;20021;-77
2022/01/15 07:18:18;;;;;;;1.73;0.70;;;;;;;0.97;62.75;97135.75;4853138;29;20550;-78
2022/01/15 07:20:44;;;;;;;1.92;0.65;;;;;;;0.99;62.77;97134.00;4885833;29;20036;-76
2022/01/15 07:23:10;;;;;;;1.60;1.02;;;;;;;0.97;62.25;97128.88;5385641;23;20910;-76
2022/01/15 07:25:36;;;;;;;2.08;0.80;;;;;;;1.05;62.59;97136.47;4891663;29;20072;-77
2022/01/15 07:28:06;;;;;;;1.35;0.90;;;;;;;0.85;62.60;97103.44;4887995;29;20638;-77
2022/01/15 07:30:41;;;;;;;1.10;0.80;;;;;;;0.98;62.45;97104.13;4859729;29;20064;-78
2022/01/15 07:33:07;;;;;;;1.10;0.73;;;;;;;1.15;62.67;97153.41;4883030;29;20068;-75
2022/01/15 07:35:33;;;;;;;1.08;0.80;;;;;;;1.25;62.20;97141.31;4881971;29;20069;-78
2022/01/15 07:37:59;;;;;;;2.15;0.77;;;;;;;1.31;62.71;97155.75;4881476;29;20818;-77
2022/01/15 07:40:24;;;;;;;1.65;0.80;;;;;;;1.12;62.17;97106.47;4881054;29;20160;-77
2022/01/15 07:42:50;;;;;;;0.93;0.68;;;;;;;1.32;62.46;97154.88;4883908;29;20049;-78
2022/01/15 07:45:18;;;;;;;0.73;0.60;;;;;;;1.29;62.13;97160.06;4884823;29;20092;-77
2022/01/15 07:47:44;;;;;;;1.70;0.75;;;;;;;1.32;62.12;97162.59;4880232;29;20486;-78
2022/01/15 07:50:17;;;;;;;2.28;0.63;;;;;;;1.32;61.81;97170.28;4865990;29;21061;-77
2022/01/15 07:52:44;;;;;;;1.23;0.60;;;;;;;1.39;61.56;97171.88;4876571;29;20036;-79
2022/01/15 07:55:10;;;;;;;1.55;0.90;;;;;;;1.48;62.15;97176.88;4883785;29;20131;-76
2022/01/15 07:57:36;;;;;;;2.45;1.10;;;;;;;1.52;62.10;97187.06;4882205;29;20084;-77
2022/01/15 08:00:03;;;;;;;1.02;0.70;;;;;;;1.54;61.59;97195.59;4865516;29;20490;-77
2022/01/15 08:02:38;;;;;;;1.58;0.90;;;;;;;1.57;61.99;97193.00;4870316;29;20190;-77
2022/01/15 08:05:05;;;;;;;2.20;1.30;;;;;;;1.40;61.59;97165.03;4883411;29;20135;-78
2022/01/15 08:07:31;;;;;;;0.88;0.65;;;;;;;1.39;61.11;97184.69;4886018;29;20048;-77
2022/01/15 08:09:57;;;;;;;1.23;0.80;;;;;;;1.49;61.36;97193.94;4883861;29;20703;-77
2022/01/15 08:12:23;;;;;;;0.93;0.63;;;;;;;1.47;62.02;97208.50;4856227;29;20037;-77
2022/01/15 08:14:50;;;;;;;1.17;0.70;;;;;;;1.26;61.32;97196.81;4870859;29;20049;-76
2022/01/15 08:17:16;;;;;;;2.75;0.70;;;;;;;1.38;61.25;97223.16;4889101;29;20114;-76
2022/01/15 08:19:42;;;;;;;2.42;0.80;;;;;;;1.38;61.58;97210.34;4888875;29;20463;-79
2022/01/15 08:22:07;;;;;;;1.50;0.90;;;;;;;1.38;60.88;97212.91;4878945;29;20040;-79
2022/01/15 08:24:37;;;;;;;1.10;0.80;;;;;;;1.56;61.28;97230.59;4872243;29;20462;-79
2022/01/15 08:27:09;;;;;;;2.47;1.00;;;;;;;1.35;61.06;97193.28;4854350;29;20041;-75
2022/01/15 08:29:34;;;;;;;1.45;0.90;;;;;;;1.69;61.50;97236.38;4867470;29;20048;-77
2022/01/15 08:32:19;;;;;;;2.25;0.95;;;;;;;1.48;60.48;97215.31;4881595;29;20045;-77
2022/01/15 08:34:48;;;;;;;1.63;0.90;;;;;;;1.25;60.79;97191.72;4856921;29;20144;-76
2022/01/15 08:37:13;;;;;;;2.72;0.93;;;;;;;1.17;61.17;97187.56;4894137;29;20120;-79
2022/01/15 08:39:40;;;;;;;1.60;1.00;;;;;;;1.73;61.17;97260.28;4871194;29;20052;-77
2022/01/15 08:42:09;;;;;;;5.28;0.90;;;;;;;1.70;61.31;97257.75;4856991;29;20460;-78
2022/01/15 08:44:40;;;;;;;2.60;1.02;;;;;;;1.67;61.86;97258.63;4852289;29;20096;-77
2022/01/15 08:47:06;;;;;;;3.65;1.17;;;;;;;1.63;61.11;97262.13;4868877;29;20052;-78
2022/01/15 08:49:34;;;;;;;1.40;1.00;;;;;;;1.63;61.62;97273.22;4865736;29;20060;-76
2022/01/15 08:52:04;;;;;;;1.73;0.95;;;;;;;1.65;62.26;97257.84;4865104;29;20080;-78
2022/01/15 08:54:33;;;;;;;2.05;0.98;;;;;;;1.50;61.64;97252.03;4869039;29;20065;-78
2022/01/15 08:57:02;;;;;;;2.45;0.90;;;;;;;1.39;61.09;97259.03;4866766;29;20041;-77
2022/01/15 08:59:28;;;;;;;1.58;0.90;;;;;;;1.25;61.97;97240.38;4851244;29;20121;-77
2022/01/15 09:02:00;;;;;;;1.90;1.10;;;;;;;1.35;61.59;97250.50;4867606;29;20465;-74
2022/01/15 09:04:31;;;;;;;1.75;1.23;;;;;;;1.39;62.18;97255.59;4868369;29;20041;-79
2022/01/15 09:06:58;;;;;;;2.72;0.82;;;;;;;1.26;61.74;97216.47;4842053;29;20745;-76
2022/01/15 09:09:23;;;;;;;1.00;0.80;;;;;;;1.15;61.29;97189.28;4872257;29;20045;-77
2022/01/15 09:11:50;;;;;;;1.80;0.90;;;;;;;1.48;61.04;97268.31;4868745;29;20048;-77
2022/01/15 09:14:17;;;;;;;2.90;1.05;;;;;;;1.26;60.90;97234.41;4870976;29;20041;-76
2022/01/15 09:16:43;;;;;;;2.45;0.95;;;;;;;1.54;60.98;97263.09;4866277;29;20053;-79
2022/01/15 09:19:09;;;;;;;3.00;1.20;;;;;;;1.80;60.70;97306.34;4869666;29;20047;-77
2022/01/15 09:21:35;;;;;;;1.35;0.80;;;;;;;1.72;60.84;97287.63;4862820;29;20080;-76
2022/01/15 09:24:01;;;;;;;1.52;0.98;;;;;;;1.66;60.11;97292.84;4859685;29;20510;-78
2022/01/15 09:32:00;;;;;;;1.35;0.98;;;;;;;1.78;59.66;97305.50;4845138;29;20053;-76
2022/01/15 09:34:26;;;;;;;2.83;0.90;;;;;;;1.68;59.34;97291.09;4834931;29;20048;-77
2022/01/15 09:36:53;;;;;;;2.30;0.93;;;;;;;1.76;59.72;97308.97;4840251;29;20128;-77
2022/01/15 09:39:23;;;;;;;1.52;0.70;;;;;;;1.68;59.21;97319.31;4833428;29;20049;-76
2022/01/15 09:41:51;;;;;;;0.88;0.60;;;;;;;1.73;59.19;97324.41;4867364;29;20093;-76
2022/01/15 09:44:18;;;;;;;2.25;1.00;;;;;;;1.78;59.23;97338.84;4864744;29;20149;-78
2022/01/15 09:46:48;;;;;;;1.80;0.70;;;;;;;1.48;58.84;97317.00;4860416;29;20056;-78
2022/01/15 09:49:16;;;;;;;3.35;1.30;;;;;;;1.41;58.86;97303.41;4863074;29;20139;-80
2022/01/15 09:51:48;;;;;;;1.45;0.80;;;;;;;1.73;58.98;97361.13;4861128;29;20077;-80
2022/01/15 09:54:18;;;;;;;1.58;0.93;;;;;;;1.54;58.50;97316.94;4848943;29;20041;-80
2022/01/15 09:56:46;;;;;;;2.42;0.90;;;;;;;1.82;59.36;97349.06;4848760;29;20040;-78
2022/01/15 09:59:13;;;;;;;2.75;1.25;;;;;;;2.00;59.35;97364.22;4843512;29;20041;-79
2022/01/15 10:01:39;;;;;;;1.30;0.90;;;;;;;2.01;59.04;97359.91;4861083;29;20104;-78
2022/01/15 10:04:05;;;;;;;1.42;0.90;;;;;;;1.90;59.05;97368.63;4865554;29;20045;-78
2022/01/15 10:06:30;;;;;;;2.60;1.35;;;;;;;1.94;58.95;97370.28;4848296;29;20072;-79
2022/01/15 10:09:22;;;;;;;4.43;1.17;;;;;;;1.29;58.94;97280.47;4849962;29;20973;-80
2022/01/15 10:16:02;;;;;;;1.85;0.77;;;;;;;1.90;59.02;97385.69;5760115;23;20063;-79
2022/01/15 10:18:32;;;;;;;1.40;0.90;;;;;;;1.86;59.83;97396.91;4925225;28;20074;-78
2022/01/15 10:21:15;;;;;;;0.70;0.57;;;;;;;1.90;59.35;97393.41;4925170;28;20098;-77
2022/01/15 10:23:57;;;;;;;1.45;0.88;;;;;;;1.40;59.59;97321.38;4947125;28;20122;-78
2022/01/15 10:26:26;;;;;;;1.10;0.90;;;;;;;1.78;59.33;97390.13;4957844;28;20122;-79
2022/01/15 10:28:56;;;;;;;2.17;0.90;;;;;;;1.99;60.07;97395.84;4941944;28;20461;-78
2022/01/15 10:31:28;;;;;;;3.80;1.20;;;;;;;1.97;59.65;97395.03;4941214;28;20922;-81
2022/01/15 10:33:55;;;;;;;1.85;1.02;;;;;;;1.80;59.64;97377.28;4910858;28;20039;-78
2022/01/15 10:36:29;;;;;;;1.50;0.90;;;;;;;2.05;59.60;97415.44;4948414;28;20073;-80
2022/01/15 10:39:16;;;;;;;2.85;0.93;;;;;;;1.84;59.97;97378.09;4947804;28;20102;-79
2022/01/15 10:41:42;;;;;;;0.90;0.70;;;;;;;2.08;60.02;97411.16;4942020;28;20111;-80
2022/01/15 10:44:28;;;;;;;2.30;1.10;;;;;;;1.88;60.04;97406.25;4945300;28;20098;-77
2022/01/15 10:47:04;;;;;;;3.95;1.20;;;;;;;1.94;60.11;97433.53;4928448;28;20035;-80
2022/01/15 10:49:31;;;;;;;2.50;0.85;;;;;;;1.92;59.99;97422.44;4956527;28;20047;-77
2022/01/15 10:52:10;;;;;;;1.83;1.00;;;;;;;1.84;60.04;97414.84;4928440;28;20038;-79
2022/01/15 10:54:54;;;;;;;1.48;0.80;;;;;;;1.87;59.27;97437.06;4939934;28;20473;-79
2022/01/15 10:57:22;;;;;;;2.03;1.10;;;;;;;1.84;60.03;97447.34;4933094;28;20113;-77
2022/01/15 11:00:38;;;;;;;1.45;0.90;;;;;;;1.61;59.00;97433.06;4956051;28;20117;-78
2022/01/15 11:03:18;;;;;;;1.77;0.80;;;;;;;1.44;59.40;97441.75;4856905;29;20048;-80
2022/01/15 11:05:46;;;;;;;2.67;0.90;;;;;;;1.19;59.69;97444.59;4941178;28;20142;-78
2022/01/15 11:08:13;;;;;;;5.00;2.25;;;;;;;1.30;59.96;97485.50;4960125;28;20043;-79
2022/01/15 11:11:05;;;;;;;4.32;2.15;;;;;;;1.29;59.95;97477.78;4941994;28;20042;-79
2022/01/15 11:13:34;;;;;;;1.45;0.90;;;;;;;1.20;59.73;97491.53;4949981;28;20050;-78
2022/01/15 11:16:25;;;;;;;1.08;0.80;;;;;;;1.13;60.26;97487.31;4941804;29;20059;-79
2022/01/15 11:18:55;;;;;;;2.78;1.20;;;;;;;1.13;60.35;97503.56;4940744;29;20051;-76
2022/01/15 11:21:26;;;;;;;1.95;0.90;;;;;;;1.10;60.90;97503.56;4931309;29;20414;-78
2022/01/15 11:23:53;;;;;;;2.50;1.15;;;;;;;1.22;61.15;97501.75;4940102;28;20052;-77
2022/01/15 11:26:29;;;;;;;1.90;1.20;;;;;;;1.18;60.57;97514.63;4956964;28;20047;-80
2022/01/15 11:28:59;;;;;;;1.73;0.80;;;;;;;1.13;61.84;97512.94;4942952;29;20043;-78
2022/01/15 11:31:29;;;;;;;1.63;0.90;;;;;;;1.00;60.88;97495.09;4912501;29;20123;-79
2022/01/15 11:33:58;;;;;;;2.65;1.00;;;;;;;1.19;61.22;97518.03;4926692;29;20073;-76
2022/01/15 11:36:34;;;;;;;2.97;1.10;;;;;;;1.23;61.74;97529.94;4939349;29;20054;-75
2022/01/15 11:39:03;;;;;;;2.47;1.27;;;;;;;1.09;61.25;97524.09;4921087;29;20067;-76
2022/01/15 11:41:29;;;;;;;4.70;1.20;;;;;;;1.18;61.22;97547.06;4962389;28;20052;-77
2022/01/15 11:43:56;;;;;;;3.95;1.10;;;;;;;1.24;60.98;97539.34;4944195;29;20057;-78
2022/01/15 11:46:47;;;;;;;3.53;1.00;;;;;;;1.10;61.11;97554.81;4943539;29;20066;-79
2022/01/15 11:49:35;;;;;;;3.13;1.45;;;;;;;1.11;61.32;97563.31;4943240;29;20499;-76
2022/01/15 11:52:09;;;;;;;2.22;1.00;;;;;;;1.13;61.02;97562.47;4970787;28;20050;-76
2022/01/15 11:54:36;;;;;;;1.70;0.90;;;;;;;0.97;60.57;97564.28;4948746;28;20565;-76
2022/01/15 11:57:45;;;;;;;2.78;1.10;;;;;;;1.10;61.18;97570.19;4913316;29;20047;-78
2022/01/15 12:00:20;;;;;;;1.77;0.98;;;;;;;1.06;60.80;97568.50;4915065;29;20314;-77
2022/01/15 12:02:58;;;;;;;3.67;0.88;;;;;;;1.05;61.73;97597.53;4919426;29;20744;-78
2022/01/15 12:05:27;;;;;;;3.25;0.93;;;;;;;1.04;60.97;97599.25;4910741;29;20079;-76
2022/01/15 12:08:02;;;;;;;4.10;1.00;;;;;;;0.95;61.00;97596.72;4938893;29;20138;-78
2022/01/15 12:10:49;;;;;;;2.95;0.90;;;;;;;0.90;61.00;97601.88;4941531;29;20517;-77
2022/01/15 12:13:23;;;;;;;1.92;1.20;;;;;;;0.97;61.09;97620.63;4936336;29;20259;-78
2022/01/15 12:16:16;;;;;;;1.52;1.10;;;;;;;1.02;60.47;97633.41;4946794;29;20825;-75
2022/01/15 12:18:46;;;;;;;2.10;1.20;;;;;;;1.00;60.92;97627.44;4937069;29;20082;-76